createdAt,value
2023-04-16T00:01:06.594Z,26.15
2023-04-16T00:03:33.668Z,26.23
2023-04-16T00:06:00.697Z,24.20
2023-04-16T00:08:27.450Z,25.55
2023-04-16T00:11:19.047Z,28.52
2023-04-16T00:13:45.713Z,25.23
2023-04-16T00:16:12.323Z,23.52
2023-04-16T00:18:39.554Z,22.70
2023-04-16T00:21:07.568Z,26.58
2023-04-16T00:23:34.261Z,25.98
2023-04-16T00:26:01.191Z,24.27
2023-04-16T00:28:27.832Z,23.45
2023-04-16T00:30:55.168Z,27.25
2023-04-16T00:33:22.375Z,26.00
2023-04-16T00:35:49.278Z,25.02
2023-04-16T00:38:19.215Z,25.40
2023-04-16T00:40:45.913Z,26.30
2023-04-16T00:43:26.082Z,25.00
2023-04-16T00:48:21.577Z,24.45
2023-04-16T00:50:48.856Z,26.65
2023-04-16T00:53:16.160Z,29.80
2023-04-16T00:55:43.828Z,27.38
2023-04-16T00:58:10.533Z,26.23
2023-04-16T01:00:37.318Z,24.45
2023-04-16T01:03:05.435Z,26.60
2023-04-16T01:05:32.196Z,27.52
2023-04-16T01:08:02.508Z,26.90
2023-04-16T01:10:29.307Z,31.70
2023-04-16T01:12:56.004Z,29.33
2023-04-16T01:15:22.798Z,30.10
2023-04-16T01:17:49.563Z,27.00
2023-04-16T01:20:16.418Z,28.42
2023-04-16T01:22:43.105Z,33.92
2023-04-16T01:25:14.741Z,28.77
2023-04-16T01:27:41.518Z,32.92
2023-04-16T01:30:08.616Z,25.70
2023-04-16T01:32:35.556Z,28.42
2023-04-16T01:35:02.378Z,29.83
2023-04-16T01:37:29.578Z,27.98
2023-04-16T01:39:56.354Z,28.75
2023-04-16T01:42:23.084Z,29.20
2023-04-16T01:44:49.900Z,27.30
2023-04-16T01:47:16.898Z,30.13
2023-04-16T01:49:45.644Z,27.33
2023-04-16T01:52:12.373Z,26.65
2023-04-16T01:54:39.012Z,25.95
2023-04-16T01:57:06.030Z,29.30
2023-04-16T01:59:32.656Z,25.08
2023-04-16T02:02:13.157Z,27.75
2023-04-16T02:04:41.917Z,25.60
2023-04-16T02:07:09.359Z,26.75
2023-04-16T02:09:37.706Z,26.75
2023-04-16T02:12:04.774Z,24.58
2023-04-16T02:14:32.629Z,25.67
2023-04-16T02:16:59.842Z,27.98
2023-04-16T02:19:26.942Z,24.42
2023-04-16T02:21:54.342Z,34.10
2023-04-16T02:24:21.407Z,25.30
2023-04-16T02:26:48.385Z,28.67
2023-04-16T02:29:16.432Z,25.73
2023-04-16T02:31:43.230Z,25.45
2023-04-16T02:34:10.080Z,26.48
2023-04-16T02:36:37.026Z,26.80
2023-04-16T02:39:03.854Z,24.52
2023-04-16T02:41:30.818Z,24.15
2023-04-16T02:43:57.440Z,26.83
2023-04-16T02:46:24.374Z,25.85
2023-04-16T02:48:51.099Z,26.35
2023-04-16T02:51:17.734Z,27.30
2023-04-16T02:53:46.153Z,27.90
2023-04-16T02:56:13.295Z,26.20
2023-04-16T02:58:40.178Z,26.27
2023-04-16T03:01:06.866Z,28.17
2023-04-16T03:03:33.764Z,23.73
2023-04-16T03:06:00.597Z,24.17
2023-04-16T03:08:27.607Z,23.25
2023-04-16T03:10:54.244Z,25.42
2023-04-16T03:13:21.060Z,26.60
2023-04-16T03:15:50.802Z,28.42
2023-04-16T03:18:17.486Z,25.23
2023-04-16T03:20:44.232Z,26.95
2023-04-16T03:23:10.874Z,24.60
2023-04-16T03:25:40.602Z,25.38
2023-04-16T03:28:07.288Z,25.75
2023-04-16T03:30:33.953Z,29.38
2023-04-16T03:33:01.291Z,26.40
2023-04-16T03:35:28.141Z,25.50
2023-04-16T03:37:54.849Z,27.08
2023-04-16T03:40:21.569Z,25.85
2023-04-16T03:42:48.237Z,25.73
2023-04-16T03:45:15.217Z,27.83
2023-04-16T03:47:41.966Z,28.25
2023-04-16T03:50:09.178Z,33.70
2023-04-16T03:52:36.130Z,28.23
2023-04-16T03:55:04.111Z,26.23
2023-04-16T03:57:30.773Z,30.92
2023-04-16T03:59:57.400Z,28.30
2023-04-16T04:02:24.289Z,28.55
2023-04-16T04:04:51.249Z,27.95
2023-04-16T04:07:17.988Z,27.90
2023-04-16T04:09:44.626Z,28.83
2023-04-16T04:12:11.272Z,29.38
2023-04-16T04:14:40.051Z,28.15
2023-04-16T04:17:08.305Z,31.70
2023-04-16T04:19:35.018Z,30.70
2023-04-16T04:22:01.698Z,32.83
2023-04-16T04:24:28.443Z,34.58
2023-04-16T04:26:55.149Z,31.63
2023-04-16T04:29:21.906Z,32.83
2023-04-16T04:31:48.634Z,33.25
2023-04-16T04:34:15.457Z,32.83
2023-04-16T04:36:42.128Z,34.85
2023-04-16T04:39:08.945Z,34.75
2023-04-16T04:41:36.158Z,37.22
2023-04-16T04:44:02.812Z,35.25
2023-04-16T04:46:29.551Z,31.35
2023-04-16T04:48:56.210Z,34.72
2023-04-16T04:51:22.874Z,40.83
2023-04-16T04:53:49.525Z,42.13
2023-04-16T04:56:16.264Z,42.85
2023-04-16T04:58:43.122Z,44.28
2023-04-16T05:01:09.908Z,44.13
2023-04-16T05:03:36.654Z,48.08
2023-04-16T05:06:03.571Z,43.78
2023-04-16T05:08:30.308Z,41.78
2023-04-16T05:10:56.914Z,45.10
2023-04-16T05:13:23.667Z,44.67
2023-04-16T05:15:50.577Z,40.83
2023-04-16T05:18:17.224Z,39.25
2023-04-16T05:20:43.822Z,42.97
2023-04-16T05:23:10.568Z,39.75
2023-04-16T05:25:37.155Z,37.58
2023-04-16T05:28:03.844Z,41.10
2023-04-16T05:30:30.763Z,39.15
2023-04-16T05:32:57.520Z,37.28
2023-04-16T05:35:24.232Z,33.60
2023-04-16T05:37:50.924Z,38.58
2023-04-16T05:40:17.781Z,37.17
2023-04-16T05:42:44.669Z,37.33
2023-04-16T05:45:11.565Z,39.25
2023-04-16T05:47:38.307Z,37.20
2023-04-16T05:50:05.695Z,35.55
2023-04-16T05:52:32.439Z,36.80
2023-04-16T05:55:01.608Z,41.03
2023-04-16T05:57:29.184Z,35.63
2023-04-16T05:59:57.059Z,35.05
2023-04-16T06:02:23.894Z,32.95
2023-04-16T06:04:50.865Z,32.72
2023-04-16T06:07:17.497Z,32.72
2023-04-16T06:09:45.082Z,34.97
2023-04-16T06:12:11.962Z,36.05
2023-04-16T06:14:38.581Z,33.45
2023-04-16T06:17:05.451Z,35.53
2023-04-16T06:19:32.071Z,34.78
2023-04-16T06:21:59.054Z,34.63
2023-04-16T06:24:25.676Z,39.20
2023-04-16T06:26:52.354Z,39.67
2023-04-16T06:29:19.002Z,44.70
2023-04-16T06:31:45.970Z,38.35
2023-04-16T06:34:12.659Z,41.58
2023-04-16T06:36:39.295Z,42.22
2023-04-16T06:39:05.947Z,43.88
2023-04-16T06:41:33.052Z,45.03
2023-04-16T06:43:59.716Z,40.15
2023-04-16T06:46:26.411Z,45.95
2023-04-16T06:48:53.169Z,38.80
2023-04-16T06:51:20.008Z,45.13
2023-04-16T06:53:46.642Z,40.35
2023-04-16T06:56:13.319Z,42.25
2023-04-16T06:58:40.075Z,38.17
2023-04-16T07:01:06.861Z,42.28
2023-04-16T07:03:33.647Z,43.55
2023-04-16T07:06:00.379Z,43.53
2023-04-16T07:08:27.096Z,38.45
2023-04-16T07:10:54.307Z,37.75
2023-04-16T07:13:21.734Z,37.47
2023-04-16T07:15:48.452Z,35.03
2023-04-16T07:18:15.873Z,40.00
2023-04-16T07:20:42.634Z,36.92
2023-04-16T07:23:09.290Z,40.47
2023-04-16T07:25:36.042Z,38.65
2023-04-16T07:28:03.960Z,35.88
2023-04-16T07:30:34.206Z,33.97
2023-04-16T07:33:02.966Z,36.45
2023-04-16T07:35:30.936Z,35.30
2023-04-16T07:37:57.754Z,36.22
2023-04-16T07:40:24.744Z,35.88
2023-04-16T07:42:51.570Z,32.45
2023-04-16T07:45:18.795Z,29.35
2023-04-16T07:47:46.202Z,33.25
2023-04-16T07:50:13.330Z,31.60
2023-04-16T07:52:41.443Z,25.90
2023-04-16T07:55:10.453Z,26.73
2023-04-16T07:57:37.498Z,26.90
2023-04-16T08:00:05.292Z,26.65
2023-04-16T08:02:32.323Z,24.50
2023-04-16T08:04:59.667Z,29.33
2023-04-16T08:07:26.793Z,28.45
2023-04-16T08:09:54.612Z,27.25
2023-04-16T08:12:21.336Z,24.60
2023-04-16T08:14:48.407Z,26.88
2023-04-16T08:17:15.853Z,26.15
2023-04-16T08:19:45.046Z,24.95
2023-04-16T08:22:13.067Z,27.02
2023-04-16T08:24:39.995Z,23.60
2023-04-16T08:27:17.961Z,27.20
2023-04-16T08:29:46.161Z,21.83
2023-04-16T08:32:13.013Z,25.33
2023-04-16T08:34:39.734Z,23.55
2023-04-16T08:37:06.413Z,25.15
2023-04-16T08:39:33.075Z,21.30
2023-04-16T08:42:04.844Z,21.98
2023-04-16T08:44:37.878Z,22.08
2023-04-16T08:47:08.609Z,25.35
2023-04-16T08:49:43.245Z,20.60
2023-04-16T08:52:22.585Z,20.05
2023-04-16T08:54:58.824Z,20.25
2023-04-16T08:57:30.913Z,20.23
2023-04-16T08:59:58.287Z,18.83
2023-04-16T09:02:27.164Z,16.95
2023-04-16T09:04:55.677Z,17.23
2023-04-16T09:07:23.970Z,15.80
2023-04-16T09:09:53.306Z,16.73
2023-04-16T09:12:23.326Z,18.97
2023-04-16T09:14:50.974Z,15.63
2023-04-16T09:17:19.468Z,15.23
2023-04-16T09:19:46.569Z,11.52
2023-04-16T09:22:13.306Z,11.90
2023-04-16T09:24:40.018Z,11.98
2023-04-16T09:27:08.286Z,12.80
2023-04-16T09:29:39.917Z,9.00
2023-04-16T09:32:08.889Z,8.82
2023-04-16T09:34:54.619Z,10.48
2023-04-16T09:37:21.350Z,8.20
2023-04-16T09:40:14.163Z,7.97
2023-04-16T09:42:41.264Z,8.40
2023-04-16T09:45:08.432Z,8.45
2023-04-16T09:47:43.331Z,10.20
2023-04-16T09:50:16.458Z,5.78
2023-04-16T09:52:48.352Z,6.03
2023-04-16T09:55:15.392Z,6.05
2023-04-16T09:57:42.076Z,7.30
2023-04-16T10:00:10.385Z,5.45
2023-04-16T10:02:41.933Z,7.28
2023-04-16T10:05:09.387Z,5.47
2023-04-16T10:07:37.589Z,5.10
2023-04-16T10:10:05.397Z,5.60
2023-04-16T10:12:33.054Z,5.30
2023-04-16T10:14:59.790Z,4.30
2023-04-16T10:17:30.011Z,6.18
2023-04-16T10:19:58.403Z,4.47
2023-04-16T10:22:26.228Z,5.90
2023-04-16T10:24:53.904Z,8.35
2023-04-16T10:27:21.115Z,6.93
2023-04-16T10:29:49.236Z,4.78
2023-04-16T10:32:18.321Z,5.78
2023-04-16T10:34:45.513Z,4.47
2023-04-16T10:37:12.675Z,3.72
2023-04-16T10:39:39.406Z,3.63
2023-04-16T10:42:13.595Z,3.60
2023-04-16T10:44:44.328Z,3.10
2023-04-16T10:47:14.000Z,3.17
2023-04-16T10:49:41.628Z,2.92
2023-04-16T10:52:13.523Z,2.88
2023-04-16T10:54:41.340Z,2.88
2023-04-16T10:57:19.724Z,2.92
2023-04-16T10:59:48.655Z,3.17
2023-04-16T11:02:17.664Z,3.17
2023-04-16T11:04:49.310Z,3.33
2023-04-16T11:07:17.986Z,3.35
2023-04-16T11:09:51.764Z,3.30
2023-04-16T11:12:24.517Z,3.53
2023-04-16T11:14:53.353Z,2.70
2023-04-16T11:17:21.217Z,2.60
2023-04-16T11:19:48.197Z,2.42
2023-04-16T11:22:17.469Z,3.03
2023-04-16T11:24:47.681Z,2.77
2023-04-16T11:29:42.591Z,3.85
2023-04-16T11:32:09.359Z,3.13
2023-04-16T11:34:44.689Z,3.72
2023-04-16T11:37:11.401Z,6.20
2023-04-16T11:39:53.627Z,7.35
2023-04-16T11:42:22.760Z,9.05
2023-04-16T11:44:57.518Z,6.88
2023-04-16T11:47:25.020Z,5.95
2023-04-16T11:49:51.867Z,7.57
2023-04-16T11:52:32.370Z,11.50
2023-04-16T11:54:59.979Z,6.72
2023-04-16T11:57:28.907Z,6.97
2023-04-16T12:00:02.208Z,7.72
2023-04-16T12:02:36.936Z,7.63
2023-04-16T12:05:05.686Z,9.63
2023-04-16T12:07:32.353Z,9.93
2023-04-16T12:10:07.927Z,8.93
2023-04-16T12:12:35.535Z,9.07
2023-04-16T12:15:04.028Z,9.88
2023-04-16T12:17:33.002Z,27.75
2023-04-16T12:20:02.161Z,15.93
2023-04-16T12:22:28.825Z,10.90
2023-04-16T12:25:11.701Z,11.77
2023-04-16T12:27:58.064Z,11.73
2023-04-16T12:30:26.799Z,10.80
2023-04-16T12:33:13.800Z,15.32
2023-04-16T12:35:42.078Z,12.60
2023-04-16T12:38:09.056Z,13.38
2023-04-16T12:40:36.469Z,12.07
2023-04-16T12:43:03.379Z,12.20
2023-04-16T12:45:30.317Z,11.63
2023-04-16T12:47:57.563Z,13.52
2023-04-16T12:50:24.491Z,13.40
2023-04-16T12:52:51.353Z,16.40
2023-04-16T12:55:18.924Z,20.02
2023-04-16T12:57:45.656Z,23.25
2023-04-16T13:00:12.887Z,24.30
2023-04-16T13:02:40.222Z,24.60
2023-04-16T13:05:08.151Z,23.65
2023-04-16T13:07:35.253Z,24.30
2023-04-16T13:10:02.080Z,21.55
2023-04-16T13:12:28.801Z,22.70
2023-04-16T13:14:55.944Z,23.15
2023-04-16T13:17:22.601Z,24.58
2023-04-16T13:19:49.313Z,21.60
2023-04-16T13:22:16.176Z,20.50
2023-04-16T13:24:45.245Z,23.88
2023-04-16T13:27:12.798Z,22.30
2023-04-16T13:29:39.419Z,24.55
2023-04-16T13:32:06.441Z,25.20
2023-04-16T13:34:33.248Z,20.85
2023-04-16T13:37:00.013Z,16.75
2023-04-16T13:39:26.712Z,17.92
2023-04-16T13:41:53.366Z,14.55
2023-04-16T13:44:20.147Z,13.30
2023-04-16T13:46:47.928Z,12.30
2023-04-16T13:49:15.088Z,11.98
2023-04-16T13:51:45.051Z,11.15
2023-04-16T13:54:11.883Z,10.95
2023-04-16T13:56:39.026Z,11.10
2023-04-16T13:59:06.047Z,11.65
2023-04-16T14:01:33.098Z,13.80
2023-04-16T14:04:06.095Z,12.30
2023-04-16T14:06:34.549Z,10.43
2023-04-16T14:09:01.910Z,13.82
2023-04-16T14:11:28.768Z,12.07
2023-04-16T14:13:55.604Z,12.43
2023-04-16T14:16:22.396Z,12.07
2023-04-16T14:18:49.311Z,11.77
2023-04-16T14:21:16.361Z,11.02
2023-04-16T14:23:43.000Z,13.38
2023-04-16T14:26:09.718Z,12.38
2023-04-16T14:28:36.373Z,12.30
2023-04-16T14:31:03.200Z,12.65
2023-04-16T14:33:30.004Z,13.63
2023-04-16T14:35:56.655Z,14.35
2023-04-16T14:38:23.419Z,13.77
2023-04-16T14:40:50.211Z,13.75
2023-04-16T14:43:16.857Z,16.45
2023-04-16T14:45:43.701Z,14.27
2023-04-16T14:48:10.524Z,14.98
2023-04-16T14:50:38.028Z,15.77
2023-04-16T14:53:05.669Z,16.30
2023-04-16T14:55:32.613Z,16.27
2023-04-16T14:57:59.909Z,15.55
2023-04-16T15:00:27.480Z,17.25
2023-04-16T15:02:57.822Z,16.90
2023-04-16T15:05:24.725Z,18.55
2023-04-16T15:07:51.391Z,17.35
2023-04-16T15:10:18.328Z,17.90
2023-04-16T15:12:44.965Z,18.30
2023-04-16T15:15:11.774Z,17.67
2023-04-16T15:17:38.622Z,17.25
2023-04-16T15:20:08.157Z,18.80
2023-04-16T15:22:35.367Z,17.42
2023-04-16T15:25:02.214Z,19.95
2023-04-16T15:27:28.903Z,18.25
2023-04-16T15:29:55.723Z,18.73
2023-04-16T15:32:22.569Z,20.55
2023-04-16T15:34:49.398Z,18.95
2023-04-16T15:37:16.604Z,19.30
2023-04-16T15:39:44.585Z,17.48
2023-04-16T15:42:11.684Z,17.27
2023-04-16T15:44:38.547Z,15.25
2023-04-16T15:47:06.486Z,18.15
2023-04-16T15:49:33.123Z,16.75
2023-04-16T15:52:00.322Z,13.30
2023-04-16T15:54:27.219Z,14.85
2023-04-16T15:56:53.894Z,16.33
2023-04-16T15:59:20.587Z,16.27
2023-04-16T16:01:47.494Z,15.73
2023-04-16T16:04:14.382Z,13.20
2023-04-16T16:06:41.772Z,13.95
2023-04-16T16:09:09.056Z,10.73
2023-04-16T16:11:37.801Z,12.65
2023-04-16T16:14:04.523Z,9.68
2023-04-16T16:16:32.614Z,9.10
2023-04-16T16:18:59.333Z,10.23
2023-04-16T16:21:26.653Z,10.65
2023-04-16T16:23:53.314Z,10.75
2023-04-16T16:26:22.904Z,11.05
2023-04-16T16:28:49.730Z,12.25
2023-04-16T16:31:16.595Z,12.93
2023-04-16T16:33:43.374Z,14.35
2023-04-16T16:36:11.314Z,14.85
2023-04-16T16:38:39.932Z,13.02
2023-04-16T16:41:07.192Z,14.20
2023-04-16T16:43:35.574Z,13.05
2023-04-16T16:46:02.261Z,13.30
2023-04-16T16:48:29.311Z,13.75
2023-04-16T16:50:56.230Z,12.18
2023-04-16T16:53:22.894Z,13.68
2023-04-16T16:55:49.577Z,13.77
2023-04-16T16:58:16.376Z,13.20
2023-04-16T17:00:43.038Z,15.30
2023-04-16T17:03:10.182Z,15.57
2023-04-16T17:05:36.931Z,13.63
2023-04-16T17:08:03.767Z,12.75
2023-04-16T17:10:30.507Z,14.30
2023-04-16T17:12:57.316Z,13.23
2023-04-16T17:15:24.031Z,12.70
2023-04-16T17:17:50.938Z,14.57
2023-04-16T17:20:17.692Z,12.88
2023-04-16T17:22:44.364Z,12.50
2023-04-16T17:25:11.364Z,16.95
2023-04-16T17:27:38.013Z,13.27
2023-04-16T17:30:15.060Z,12.57
2023-04-16T17:32:41.939Z,15.40
2023-04-16T17:35:10.052Z,13.23
2023-04-16T17:37:36.739Z,14.10
2023-04-16T17:40:07.555Z,13.02
2023-04-16T17:42:35.498Z,13.00
2023-04-16T17:45:02.849Z,14.45
2023-04-16T17:47:29.608Z,13.57
2023-04-16T17:49:56.536Z,14.27
2023-04-16T17:52:23.332Z,15.40
2023-04-16T17:54:50.158Z,15.13
2023-04-16T17:57:16.916Z,15.98
2023-04-16T17:59:43.609Z,15.70
2023-04-16T18:02:10.558Z,17.55
2023-04-16T18:04:37.426Z,18.30
2023-04-16T18:07:04.251Z,15.95
2023-04-16T18:09:31.764Z,17.42
2023-04-16T18:11:58.469Z,18.38
2023-04-16T18:14:25.307Z,18.38
2023-04-16T18:16:52.097Z,19.55
2023-04-16T18:19:18.746Z,18.85
2023-04-16T18:21:45.758Z,20.48
2023-04-16T18:24:12.646Z,20.70
2023-04-16T18:26:40.944Z,21.08
2023-04-16T18:29:08.776Z,21.02
2023-04-16T18:31:36.191Z,20.88
2023-04-16T18:34:03.043Z,21.98
2023-04-16T18:36:29.842Z,18.77
2023-04-16T18:39:02.036Z,21.23
2023-04-16T18:41:43.728Z,20.98
2023-04-16T18:44:13.350Z,22.23
2023-04-16T18:46:40.105Z,20.55
2023-04-16T18:49:07.003Z,19.42
2023-04-16T18:51:33.958Z,21.13
2023-04-16T18:54:00.632Z,16.83
2023-04-16T18:56:29.948Z,18.50
2023-04-16T18:58:56.620Z,20.37
2023-04-16T19:01:23.496Z,16.83
2023-04-16T19:03:50.496Z,17.20
2023-04-16T19:06:17.226Z,16.50
2023-04-16T19:08:44.361Z,17.27
2023-04-16T19:11:10.991Z,17.48
2023-04-16T19:13:38.693Z,18.15
2023-04-16T19:16:11.303Z,18.58
2023-04-16T19:18:38.813Z,18.17
2023-04-16T19:21:06.945Z,19.35
2023-04-16T19:23:33.716Z,20.02
2023-04-16T19:26:01.498Z,18.35
2023-04-16T19:28:28.555Z,18.65
2023-04-16T19:30:56.347Z,20.90
2023-04-16T19:33:23.227Z,19.85
2023-04-16T19:35:49.952Z,22.67
2023-04-16T19:38:16.653Z,22.30
2023-04-16T19:40:48.154Z,23.02
2023-04-16T19:43:15.346Z,22.05
2023-04-16T19:45:52.552Z,23.50
2023-04-16T19:48:20.245Z,22.10
2023-04-16T19:50:47.192Z,23.77
2023-04-16T19:53:14.555Z,29.02
2023-04-16T19:55:41.866Z,29.52
2023-04-16T19:58:09.594Z,25.15
2023-04-16T20:00:38.539Z,25.95
2023-04-16T20:03:05.932Z,26.75
2023-04-16T20:05:32.666Z,27.88
2023-04-16T20:07:59.596Z,26.67
2023-04-16T20:10:26.580Z,31.92
2023-04-16T20:12:53.885Z,30.88
2023-04-16T20:15:21.006Z,30.02
2023-04-16T20:17:47.829Z,31.38
2023-04-16T20:20:15.925Z,28.55
2023-04-16T20:22:43.389Z,29.33
2023-04-16T20:25:10.367Z,29.23
2023-04-16T20:27:37.241Z,31.42
2023-04-16T20:30:06.011Z,28.80
2023-04-16T20:32:32.946Z,32.75
2023-04-16T20:34:59.945Z,32.47
2023-04-16T20:37:28.768Z,29.63
2023-04-16T20:39:56.122Z,29.88
2023-04-16T20:42:26.126Z,34.95
2023-04-16T20:44:56.484Z,29.80
2023-04-16T20:47:23.965Z,35.60
2023-04-16T20:49:52.793Z,29.67
2023-04-16T20:52:19.686Z,30.42
2023-04-16T20:54:52.772Z,29.05
2023-04-16T20:57:19.520Z,31.60
2023-04-16T20:59:46.133Z,32.75
2023-04-16T21:02:13.078Z,32.20
2023-04-16T21:04:39.905Z,31.55
2023-04-16T21:07:06.944Z,31.60
2023-04-16T21:09:33.580Z,31.20
2023-04-16T21:12:03.960Z,29.85
2023-04-16T21:14:30.650Z,31.50
2023-04-16T21:16:57.392Z,32.92
2023-04-16T21:19:24.297Z,30.08
2023-04-16T21:21:51.287Z,34.65
2023-04-16T21:24:18.060Z,31.00
2023-04-16T21:26:44.705Z,31.15
2023-04-16T21:29:11.547Z,27.08
2023-04-16T21:31:38.563Z,28.85
2023-04-16T21:34:05.431Z,27.77
2023-04-16T21:36:33.731Z,28.02
2023-04-16T21:39:00.374Z,27.67
2023-04-16T21:41:27.082Z,28.98
2023-04-16T21:43:53.883Z,25.75
2023-04-16T21:46:21.298Z,30.05
2023-04-16T21:48:48.750Z,32.78
2023-04-16T21:51:15.747Z,25.83
2023-04-16T21:53:42.571Z,30.27
2023-04-16T21:56:09.405Z,29.25
2023-04-16T21:58:36.156Z,31.17
2023-04-16T22:01:02.901Z,28.23
2023-04-16T22:03:31.118Z,26.73
2023-04-16T22:06:01.050Z,27.77
2023-04-16T22:08:31.381Z,27.73
2023-04-16T22:13:32.465Z,26.45
2023-04-16T22:16:02.528Z,30.05
2023-04-16T22:18:33.070Z,26.63
2023-04-16T22:21:00.205Z,24.58
2023-04-16T22:23:26.938Z,25.27
2023-04-16T22:25:54.915Z,30.20
2023-04-16T22:28:22.063Z,26.60
2023-04-16T22:30:48.782Z,30.73
2023-04-16T22:33:15.791Z,25.13
2023-04-16T22:35:42.533Z,29.35
2023-04-16T22:38:10.074Z,29.50
2023-04-16T22:40:37.049Z,31.23
2023-04-16T22:43:04.020Z,31.00
2023-04-16T22:45:30.886Z,31.83
2023-04-16T22:47:57.576Z,29.98
2023-04-16T22:50:24.407Z,29.88
2023-04-16T22:52:51.066Z,26.77
2023-04-16T22:55:18.995Z,25.05
2023-04-16T22:57:45.974Z,30.48
2023-04-16T23:00:16.458Z,30.83
2023-04-16T23:02:43.709Z,30.58
2023-04-16T23:05:10.919Z,28.58
2023-04-16T23:07:37.900Z,26.67
2023-04-16T23:10:04.821Z,25.20
2023-04-16T23:12:31.553Z,30.05
2023-04-16T23:14:58.457Z,26.25
2023-04-16T23:17:25.246Z,25.30
2023-04-16T23:19:51.987Z,30.17
2023-04-16T23:22:18.622Z,26.33
2023-04-16T23:24:45.697Z,26.13
2023-04-16T23:27:12.588Z,26.17
2023-04-16T23:29:39.233Z,28.02
2023-04-16T23:32:05.992Z,25.88
2023-04-16T23:34:32.680Z,27.35
2023-04-16T23:36:59.344Z,23.92
2023-04-16T23:39:26.191Z,25.95
2023-04-16T23:41:52.925Z,27.90
2023-04-16T23:44:19.574Z,26.83
2023-04-16T23:46:46.408Z,25.90
2023-04-16T23:49:13.247Z,27.58
2023-04-16T23:51:40.110Z,28.30
2023-04-16T23:54:06.742Z,26.38
2023-04-16T23:56:33.453Z,25.20
2023-04-16T23:59:00.280Z,29.48
